sensor_id;sensor_type;location;lat;lon;timestamp;pressure;altitude;pressure_sealevel;temperature;humidity
36798;BME280;22748;8.426;99.512;2023-01-30T00:01:32;100788.41;;;27.46;67.25
36798;BME280;22748;8.426;99.512;2023-01-30T00:04:03;100790.88;;;27.48;67.59
36798;BME280;22748;8.426;99.512;2023-01-30T00:06:34;100788.19;;;27.48;67.59
36798;BME280;22748;8.426;99.512;2023-01-30T00:09:07;100790.88;;;27.48;67.75
36798;BME280;22748;8.426;99.512;2023-01-30T00:11:41;100793.56;;;27.48;67.83
36798;BME280;22748;8.426;99.512;2023-01-30T00:14:11;100791.94;;;27.47;67.52
36798;BME280;22748;8.426;99.512;2023-01-30T00:16:40;100796.66;;;27.45;67.31
36798;BME280;22748;8.426;99.512;2023-01-30T00:19:12;100798.50;;;27.44;67.14
36798;BME280;22748;8.426;99.512;2023-01-30T00:21:42;100805.09;;;27.42;67.16
36798;BME280;22748;8.426;99.512;2023-01-30T00:24:13;100808.78;;;27.41;67.53
36798;BME280;22748;8.426;99.512;2023-01-30T00:26:43;100802.41;;;27.42;67.92
36798;BME280;22748;8.426;99.512;2023-01-30T00:29:13;100804.25;;;27.41;67.70
36798;BME280;22748;8.426;99.512;2023-01-30T00:31:43;100795.19;;;27.42;67.21
36798;BME280;22748;8.426;99.512;2023-01-30T00:34:12;100808.41;;;27.44;67.39
36798;BME280;22748;8.426;99.512;2023-01-30T00:36:42;100810.25;;;27.43;67.49
36798;BME280;22748;8.426;99.512;2023-01-30T00:39:16;100814.78;;;27.43;67.55
36798;BME280;22748;8.426;99.512;2023-01-30T00:41:47;100820.97;;;27.43;67.82
36798;BME280;22748;8.426;99.512;2023-01-30T00:44:30;100827.19;;;27.44;67.33
36798;BME280;22748;8.426;99.512;2023-01-30T00:47:13;100827.19;;;27.44;67.69
36798;BME280;22748;8.426;99.512;2023-01-30T00:49:44;100825.72;;;27.41;67.68
36798;BME280;22748;8.426;99.512;2023-01-30T00:52:13;100830.88;;;27.43;67.62
36798;BME280;22748;8.426;99.512;2023-01-30T00:54:45;100837.28;;;27.42;67.67
36798;BME280;22748;8.426;99.512;2023-01-30T00:57:17;100837.94;;;27.44;67.46
36798;BME280;22748;8.426;99.512;2023-01-30T00:59:47;100851.34;;;27.44;67.54
36798;BME280;22748;8.426;99.512;2023-01-30T01:02:17;100852.97;;;27.45;67.91
36798;BME280;22748;8.426;99.512;2023-01-30T01:04:47;100854.00;;;27.44;68.00
36798;BME280;22748;8.426;99.512;2023-01-30T01:07:17;100844.75;;;27.46;67.60
36798;BME280;22748;8.426;99.512;2023-01-30T01:09:49;100846.41;;;27.47;67.80
36798;BME280;22748;8.426;99.512;2023-01-30T01:12:20;100856.13;;;27.48;68.10
36798;BME280;22748;8.426;99.512;2023-01-30T01:14:54;100850.75;;;27.48;68.09
36798;BME280;22748;8.426;99.512;2023-01-30T01:17:26;100861.25;;;27.50;68.04
36798;BME280;22748;8.426;99.512;2023-01-30T01:19:57;100872.00;;;27.50;67.80
36798;BME280;22748;8.426;99.512;2023-01-30T01:22:43;100866.63;;;27.50;67.87
36798;BME280;22748;8.426;99.512;2023-01-30T01:25:17;100872.00;;;27.50;67.42
36798;BME280;22748;8.426;99.512;2023-01-30T01:27:53;100874.88;;;27.48;67.52
36798;BME280;22748;8.426;99.512;2023-01-30T01:30:26;100872.84;;;27.51;67.64
36798;BME280;22748;8.426;99.512;2023-01-30T01:32:57;100879.41;;;27.48;67.25
36798;BME280;22748;8.426;99.512;2023-01-30T01:35:27;100881.06;;;27.49;66.86
36798;BME280;22748;8.426;99.512;2023-01-30T01:37:58;100886.44;;;27.49;67.05
36798;BME280;22748;8.426;99.512;2023-01-30T01:40:30;100888.09;;;27.50;67.52
36798;BME280;22748;8.426;99.512;2023-01-30T01:43:23;100882.72;;;27.50;67.21
36798;BME280;22748;8.426;99.512;2023-01-30T01:45:56;100887.44;;;27.48;67.50
36798;BME280;22748;8.426;99.512;2023-01-30T01:48:31;100892.56;;;27.43;67.56
36798;BME280;22748;8.426;99.512;2023-01-30T01:51:06;100893.84;;;27.47;67.63
36798;BME280;22748;8.426;99.512;2023-01-30T01:53:41;100899.63;;;27.44;67.69
36798;BME280;22748;8.426;99.512;2023-01-30T01:56:16;100904.13;;;27.43;67.90
36798;BME280;22748;8.426;99.512;2023-01-30T01:58:51;100904.97;;;27.44;67.61
36798;BME280;22748;8.426;99.512;2023-01-30T02:01:23;100910.72;;;27.41;67.42
36798;BME280;22748;8.426;99.512;2023-01-30T02:03:57;100919.03;;;27.24;67.26
36798;BME280;22748;8.426;99.512;2023-01-30T02:06:31;100931.88;;;27.14;67.12
36798;BME280;22748;8.426;99.512;2023-01-30T02:09:06;100926.75;;;27.19;67.14
36798;BME280;22748;8.426;99.512;2023-01-30T02:11:42;100930.47;;;27.18;67.07
36798;BME280;22748;8.426;99.512;2023-01-30T02:14:17;100934.72;;;27.27;67.08
36798;BME280;22748;8.426;99.512;2023-01-30T02:16:49;100937.28;;;27.36;66.58
36798;BME280;22748;8.426;99.512;2023-01-30T02:19:25;100928.16;;;27.15;67.18
36798;BME280;22748;8.426;99.512;2023-01-30T02:22:16;100932.06;;;27.13;66.88
36798;BME280;22748;8.426;99.512;2023-01-30T02:25:18;100927.78;;;27.18;66.78
36798;BME280;22748;8.426;99.512;2023-01-30T02:28:15;100938.69;;;27.32;66.58
36798;BME280;22748;8.426;99.512;2023-01-30T02:31:17;100934.66;;;27.42;66.27
36798;BME280;22748;8.426;99.512;2023-01-30T02:33:59;100938.28;;;27.35;66.57
36798;BME280;22748;8.426;99.512;2023-01-30T02:36:44;100936.53;;;27.42;65.82
36798;BME280;22748;8.426;99.512;2023-01-30T02:39:25;100940.16;;;27.19;66.33
36798;BME280;22748;8.426;99.512;2023-01-30T02:42:04;100933.31;;;27.32;65.95
36798;BME280;22748;8.426;99.512;2023-01-30T02:44:43;100937.97;;;27.23;65.71
36798;BME280;22748;8.426;99.512;2023-01-30T02:47:24;100938.22;;;27.28;66.08
36798;BME280;22748;8.426;99.512;2023-01-30T02:49:59;100932.44;;;27.24;66.10
36798;BME280;22748;8.426;99.512;2023-01-30T02:52:35;100944.81;;;27.25;66.15
36798;BME280;22748;8.426;99.512;2023-01-30T02:55:13;100945.19;;;27.22;66.39
36798;BME280;22748;8.426;99.512;2023-01-30T02:57:47;100949.81;;;27.28;66.01
36798;BME280;22748;8.426;99.512;2023-01-30T03:00:25;100942.13;;;27.25;65.98
36798;BME280;22748;8.426;99.512;2023-01-30T03:03:22;100952.56;;;27.35;66.12
36798;BME280;22748;8.426;99.512;2023-01-30T03:06:07;100956.94;;;27.43;65.83
36798;BME280;22748;8.426;99.512;2023-01-30T03:08:48;100948.06;;;27.42;65.90
36798;BME280;22748;8.426;99.512;2023-01-30T03:11:31;100952.56;;;27.35;65.81
36798;BME280;22748;8.426;99.512;2023-01-30T03:14:13;100952.50;;;27.28;65.80
36798;BME280;22748;8.426;99.512;2023-01-30T03:16:47;100957.38;;;27.25;66.27
36798;BME280;22748;8.426;99.512;2023-01-30T03:19:21;100950.72;;;27.21;65.93
36798;BME280;22748;8.426;99.512;2023-01-30T03:21:52;100957.28;;;27.18;66.00
36798;BME280;22748;8.426;99.512;2023-01-30T03:24:23;100958.47;;;27.31;66.15
36798;BME280;22748;8.426;99.512;2023-01-30T03:26:59;100956.47;;;27.39;65.92
36798;BME280;22748;8.426;99.512;2023-01-30T03:29:31;100950.41;;;27.52;66.17
36798;BME280;22748;8.426;99.512;2023-01-30T03:32:03;100953.38;;;27.57;65.43
36798;BME280;22748;8.426;99.512;2023-01-30T03:34:37;100953.63;;;27.41;65.48
36798;BME280;22748;8.426;99.512;2023-01-30T03:37:07;100954.03;;;27.38;65.61
36798;BME280;22748;8.426;99.512;2023-01-30T03:39:38;100952.47;;;27.50;65.16
36798;BME280;22748;8.426;99.512;2023-01-30T03:42:09;100947.50;;;27.47;65.65
36798;BME280;22748;8.426;99.512;2023-01-30T03:44:40;100942.13;;;27.47;65.35
36798;BME280;22748;8.426;99.512;2023-01-30T03:47:11;100939.25;;;27.48;65.43
36798;BME280;22748;8.426;99.512;2023-01-30T03:49:43;100941.31;;;27.46;64.99
36798;BME280;22748;8.426;99.512;2023-01-30T03:52:14;100940.72;;;27.51;64.90
36798;BME280;22748;8.426;99.512;2023-01-30T03:54:45;100929.47;;;27.62;64.81
36798;BME280;22748;8.426;99.512;2023-01-30T03:57:16;100929.47;;;27.62;64.67
36798;BME280;22748;8.426;99.512;2023-01-30T03:59:44;100933.97;;;27.55;64.56
36798;BME280;22748;8.426;99.512;2023-01-30T04:02:14;100930.25;;;27.56;64.70
36798;BME280;22748;8.426;99.512;2023-01-30T04:04:51;100922.94;;;27.72;64.37
36798;BME280;22748;8.426;99.512;2023-01-30T04:07:20;100920.72;;;27.75;64.67
36798;BME280;22748;8.426;99.512;2023-01-30T04:09:51;100917.97;;;27.68;63.79
36798;BME280;22748;8.426;99.512;2023-01-30T04:12:22;100921.34;;;27.77;64.29
36798;BME280;22748;8.426;99.512;2023-01-30T04:14:52;100926.25;;;27.74;64.41
36798;BME280;22748;8.426;99.512;2023-01-30T04:17:21;100913.09;;;27.79;63.84
36798;BME280;22748;8.426;99.512;2023-01-30T04:19:54;100900.81;;;27.91;63.47
36798;BME280;22748;8.426;99.512;2023-01-30T04:22:25;100899.63;;;28.00;62.92
36798;BME280;22748;8.426;99.512;2023-01-30T04:24:56;100894.09;;;28.02;62.92
36798;BME280;22748;8.426;99.512;2023-01-30T04:27:27;100898.44;;;28.03;63.59
36798;BME280;22748;8.426;99.512;2023-01-30T04:29:58;100896.44;;;28.12;62.98
36798;BME280;22748;8.426;99.512;2023-01-30T04:32:29;100894.16;;;28.15;63.08
36798;BME280;22748;8.426;99.512;2023-01-30T04:35:02;100897.69;;;28.16;62.82
36798;BME280;22748;8.426;99.512;2023-01-30T04:37:33;100889.00;;;28.14;63.13
36798;BME280;22748;8.426;99.512;2023-01-30T04:40:04;100886.31;;;28.14;63.65
36798;BME280;22748;8.426;99.512;2023-01-30T04:42:35;100889.38;;;28.10;63.26
36798;BME280;22748;8.426;99.512;2023-01-30T04:45:06;100882.78;;;28.13;63.33
36798;BME280;22748;8.426;99.512;2023-01-30T04:47:36;100891.91;;;28.19;63.58
36798;BME280;22748;8.426;99.512;2023-01-30T04:50:09;100884.84;;;28.11;63.34
36798;BME280;22748;8.426;99.512;2023-01-30T04:52:40;100883.31;;;27.95;63.34
36798;BME280;22748;8.426;99.512;2023-01-30T04:55:11;100887.66;;;27.96;63.40
36798;BME280;22748;8.426;99.512;2023-01-30T04:57:42;100880.25;;;27.98;63.46
36798;BME280;22748;8.426;99.512;2023-01-30T05:00:13;100876.75;;;28.04;63.65
36798;BME280;22748;8.426;99.512;2023-01-30T05:02:44;100877.38;;;28.06;64.03
36798;BME280;22748;8.426;99.512;2023-01-30T05:05:16;100871.38;;;28.04;63.57
36798;BME280;22748;8.426;99.512;2023-01-30T05:07:47;100868.28;;;28.01;63.87
36798;BME280;22748;8.426;99.512;2023-01-30T05:10:17;100860.88;;;28.09;64.00
36798;BME280;22748;8.426;99.512;2023-01-30T05:12:49;100851.78;;;28.10;63.99
36798;BME280;22748;8.426;99.512;2023-01-30T05:15:19;100845.00;;;28.15;64.22
36798;BME280;22748;8.426;99.512;2023-01-30T05:17:50;100845.22;;;28.20;63.66
36798;BME280;22748;8.426;99.512;2023-01-30T05:20:22;100832.44;;;28.22;63.87
36798;BME280;22748;8.426;99.512;2023-01-30T05:22:53;100841.56;;;28.27;63.63
36798;BME280;22748;8.426;99.512;2023-01-30T05:25:23;100834.72;;;28.25;63.95
36798;BME280;22748;8.426;99.512;2023-01-30T05:27:54;100824.22;;;28.30;63.59
36798;BME280;22748;8.426;99.512;2023-01-30T05:30:23;100825.03;;;28.30;63.55
36798;BME280;22748;8.426;99.512;2023-01-30T05:32:53;100815.53;;;28.35;63.81
36798;BME280;22748;8.426;99.512;2023-01-30T05:35:25;100816.81;;;28.39;63.94
36798;BME280;22748;8.426;99.512;2023-01-30T05:37:56;100814.94;;;28.39;64.03
36798;BME280;22748;8.426;99.512;2023-01-30T05:40:28;100815.19;;;28.44;63.75
36798;BME280;22748;8.426;99.512;2023-01-30T05:42:58;100814.13;;;28.45;63.94
36798;BME280;22748;8.426;99.512;2023-01-30T05:45:28;100798.22;;;28.44;63.87
36798;BME280;22748;8.426;99.512;2023-01-30T05:47:57;100795.34;;;28.45;63.88
36798;BME280;22748;8.426;99.512;2023-01-30T05:50:30;100787.09;;;28.47;64.22
36798;BME280;22748;8.426;99.512;2023-01-30T05:53:01;100785.47;;;28.52;64.38
36798;BME280;22748;8.426;99.512;2023-01-30T05:55:30;100775.94;;;28.50;64.09
36798;BME280;22748;8.426;99.512;2023-01-30T05:58:01;100775.94;;;28.50;64.24
36798;BME280;22748;8.426;99.512;2023-01-30T06:00:33;100767.03;;;28.43;63.80
36798;BME280;22748;8.426;99.512;2023-01-30T06:03:04;100764.13;;;28.44;63.59
36798;BME280;22748;8.426;99.512;2023-01-30T06:05:40;100756.47;;;28.41;64.18
36798;BME280;22748;8.426;99.512;2023-01-30T06:08:11;100745.97;;;28.46;64.17
36798;BME280;22748;8.426;99.512;2023-01-30T06:10:41;100752.34;;;28.45;63.94
36798;BME280;22748;8.426;99.512;2023-01-30T06:13:12;100741.59;;;28.45;63.62
36798;BME280;22748;8.426;99.512;2023-01-30T06:15:41;100741.25;;;28.48;63.96
36798;BME280;22748;8.426;99.512;2023-01-30T06:18:11;100737.09;;;28.52;64.00
36798;BME280;22748;8.426;99.512;2023-01-30T06:20:46;100738.56;;;28.48;63.69
36798;BME280;22748;8.426;99.512;2023-01-30T06:23:17;100730.09;;;28.51;63.30
36798;BME280;22748;8.426;99.512;2023-01-30T06:25:49;100734.16;;;28.47;64.00
36798;BME280;22748;8.426;99.512;2023-01-30T06:28:21;100719.28;;;28.45;63.51
36798;BME280;22748;8.426;99.512;2023-01-30T06:30:53;100719.09;;;28.46;63.70
36798;BME280;22748;8.426;99.512;2023-01-30T06:33:24;100713.53;;;28.48;63.89
36798;BME280;22748;8.426;99.512;2023-01-30T06:36:03;100703.41;;;28.50;63.75
36798;BME280;22748;8.426;99.512;2023-01-30T06:38:33;100704.84;;;28.52;63.08
36798;BME280;22748;8.426;99.512;2023-01-30T06:41:03;100700.94;;;28.48;62.86
36798;BME280;22748;8.426;99.512;2023-01-30T06:43:35;100706.09;;;28.50;63.13
36798;BME280;22748;8.426;99.512;2023-01-30T06:46:05;100699.47;;;28.52;63.59
36798;BME280;22748;8.426;99.512;2023-01-30T06:48:35;100703.63;;;28.48;63.08
36798;BME280;22748;8.426;99.512;2023-01-30T06:51:08;100694.94;;;28.46;63.57
36798;BME280;22748;8.426;99.512;2023-01-30T06:53:38;100686.88;;;28.46;62.72
36798;BME280;22748;8.426;99.512;2023-01-30T06:56:08;100692.44;;;28.45;63.38
36798;BME280;22748;8.426;99.512;2023-01-30T06:58:40;100681.88;;;28.43;63.30
36798;BME280;22748;8.426;99.512;2023-01-30T07:01:12;100682.16;;;28.48;62.57
36798;BME280;22748;8.426;99.512;2023-01-30T07:03:42;100675.72;;;28.49;63.37
36798;BME280;22748;8.426;99.512;2023-01-30T07:06:15;100669.34;;;28.50;63.39
36798;BME280;22748;8.426;99.512;2023-01-30T07:08:46;100678.16;;;28.31;63.55
36798;BME280;22748;8.426;99.512;2023-01-30T07:11:18;100673.63;;;28.38;63.53
36798;BME280;22748;8.426;99.512;2023-01-30T07:13:48;100666.00;;;28.42;63.37
36798;BME280;22748;8.426;99.512;2023-01-30T07:16:18;100664.75;;;28.31;63.01
36798;BME280;22748;8.426;99.512;2023-01-30T07:18:54;100661.00;;;28.25;63.32
36798;BME280;22748;8.426;99.512;2023-01-30T07:21:26;100650.25;;;28.25;63.30
36798;BME280;22748;8.426;99.512;2023-01-30T07:23:56;100653.56;;;28.34;62.98
36798;BME280;22748;8.426;99.512;2023-01-30T07:26:25;100644.69;;;28.34;62.68
36798;BME280;22748;8.426;99.512;2023-01-30T07:28:57;100651.72;;;28.41;62.60
36798;BME280;22748;8.426;99.512;2023-01-30T07:31:30;100642.00;;;28.34;62.65
36798;BME280;22748;8.426;99.512;2023-01-30T07:33:59;100632.50;;;28.31;62.19
36798;BME280;22748;8.426;99.512;2023-01-30T07:36:32;100642.41;;;28.37;62.17
36798;BME280;22748;8.426;99.512;2023-01-30T07:39:02;100639.53;;;28.32;62.41
36798;BME280;22748;8.426;99.512;2023-01-30T07:41:31;100641.16;;;28.20;62.71
36798;BME280;22748;8.426;99.512;2023-01-30T07:44:01;100638.47;;;28.20;62.36
36798;BME280;22748;8.426;99.512;2023-01-30T07:46:31;100631.25;;;28.27;62.17
36798;BME280;22748;8.426;99.512;2023-01-30T07:49:01;100633.72;;;28.28;62.58
36798;BME280;22748;8.426;99.512;2023-01-30T07:51:33;100636.81;;;28.19;62.69
36798;BME280;22748;8.426;99.512;2023-01-30T07:54:01;100636.81;;;28.19;62.33
36798;BME280;22748;8.426;99.512;2023-01-30T07:56:33;100627.94;;;28.25;62.45
36798;BME280;22748;8.426;99.512;2023-01-30T07:59:02;100634.16;;;28.32;62.26
36798;BME280;22748;8.426;99.512;2023-01-30T08:01:32;100630.22;;;28.35;62.34
36798;BME280;22748;8.426;99.512;2023-01-30T08:04:03;100634.59;;;28.42;62.60
36798;BME280;22748;8.426;99.512;2023-01-30T08:06:38;100637.03;;;28.44;62.43
36798;BME280;22748;8.426;99.512;2023-01-30T08:09:08;100637.03;;;28.44;62.47
36798;BME280;22748;8.426;99.512;2023-01-30T08:11:46;100639.53;;;28.45;62.22
36798;BME280;22748;8.426;99.512;2023-01-30T08:14:17;100637.91;;;28.51;62.24
36798;BME280;22748;8.426;99.512;2023-01-30T08:16:48;100643.28;;;28.51;62.46
36798;BME280;22748;8.426;99.512;2023-01-30T08:19:19;100631.47;;;28.45;62.20
36798;BME280;22748;8.426;99.512;2023-01-30T08:21:52;100633.13;;;28.46;62.38
36798;BME280;22748;8.426;99.512;2023-01-30T08:24:22;100622.41;;;28.46;62.06
36798;BME280;22748;8.426;99.512;2023-01-30T08:26:52;100623.41;;;28.45;62.15
36798;BME280;22748;8.426;99.512;2023-01-30T08:29:22;100627.56;;;28.48;62.50
36798;BME280;22748;8.426;99.512;2023-01-30T08:31:57;100625.50;;;28.50;62.14
36798;BME280;22748;8.426;99.512;2023-01-30T08:34:27;100624.84;;;28.41;62.46
36798;BME280;22748;8.426;99.512;2023-01-30T08:36:59;100632.09;;;28.34;62.19
36798;BME280;22748;8.426;99.512;2023-01-30T08:39:31;100630.22;;;28.35;62.03
36798;BME280;22748;8.426;99.512;2023-01-30T08:42:01;100626.09;;;28.32;62.57
36798;BME280;22748;8.426;99.512;2023-01-30T08:44:33;100620.91;;;28.37;62.04
36798;BME280;22748;8.426;99.512;2023-01-30T08:47:03;100618.84;;;28.39;62.16
36798;BME280;22748;8.426;99.512;2023-01-30T08:49:32;100617.66;;;28.42;62.31
36798;BME280;22748;8.426;99.512;2023-01-30T08:52:04;100622.16;;;28.41;62.18
36798;BME280;22748;8.426;99.512;2023-01-30T08:54:34;100615.78;;;28.36;62.07
36798;BME280;22748;8.426;99.512;2023-01-30T08:57:04;100608.53;;;28.36;62.42
36798;BME280;22748;8.426;99.512;2023-01-30T08:59:34;100610.19;;;28.37;62.06
36798;BME280;22748;8.426;99.512;2023-01-30T09:02:03;100614.53;;;28.38;62.38
36798;BME280;22748;8.426;99.512;2023-01-30T09:04:34;100624.22;;;28.33;62.47
36798;BME280;22748;8.426;99.512;2023-01-30T09:07:05;100616.59;;;28.29;62.37
36798;BME280;22748;8.426;99.512;2023-01-30T09:09:35;100620.09;;;28.23;62.18
36798;BME280;22748;8.426;99.512;2023-01-30T09:12:05;100622.34;;;28.06;62.44
36798;BME280;22748;8.426;99.512;2023-01-30T09:14:34;100621.91;;;27.96;62.84
36798;BME280;22748;8.426;99.512;2023-01-30T09:17:04;100620.44;;;28.00;62.97
36798;BME280;22748;8.426;99.512;2023-01-30T09:19:36;100632.69;;;28.09;62.36
36798;BME280;22748;8.426;99.512;2023-01-30T09:22:09;100625.00;;;28.06;62.34
36798;BME280;22748;8.426;99.512;2023-01-30T09:24:39;100617.59;;;28.15;61.99
36798;BME280;22748;8.426;99.512;2023-01-30T09:27:09;100613.91;;;28.23;62.06
36798;BME280;22748;8.426;99.512;2023-01-30T09:29:40;100622.16;;;28.28;61.80
36798;BME280;22748;8.426;99.512;2023-01-30T09:32:10;100622.97;;;28.28;62.34
36798;BME280;22748;8.426;99.512;2023-01-30T09:34:40;100623.41;;;28.32;62.49
36798;BME280;22748;8.426;99.512;2023-01-30T09:37:12;100630.66;;;28.31;62.26
36798;BME280;22748;8.426;99.512;2023-01-30T09:39:42;100632.09;;;28.34;62.18
36798;BME280;22748;8.426;99.512;2023-01-30T09:42:35;100632.72;;;28.36;62.72
36798;BME280;22748;8.426;99.512;2023-01-30T09:45:20;100638.28;;;28.41;62.39
36798;BME280;22748;8.426;99.512;2023-01-30T09:48:00;100637.03;;;28.37;62.43
36798;BME280;22748;8.426;99.512;2023-01-30T09:53:35;100635.59;;;28.35;62.62
36798;BME280;22748;8.426;99.512;2023-01-30T09:56:08;100639.53;;;28.32;62.25
36798;BME280;22748;8.426;99.512;2023-01-30T09:58:49;100637.66;;;28.26;62.52
36798;BME280;22748;8.426;99.512;2023-01-30T10:01:27;100642.00;;;28.27;62.18
36798;BME280;22748;8.426;99.512;2023-01-30T10:04:10;100646.09;;;28.09;62.79
36798;BME280;22748;8.426;99.512;2023-01-30T10:06:50;100644.03;;;27.98;62.78
36798;BME280;22748;8.426;99.512;2023-01-30T10:09:36;100652.88;;;27.99;63.39
36798;BME280;22748;8.426;99.512;2023-01-30T10:12:21;100648.78;;;28.09;62.60
36798;BME280;22748;8.426;99.512;2023-01-30T10:15:03;100651.88;;;28.13;63.01
36798;BME280;22748;8.426;99.512;2023-01-30T10:17:56;100659.31;;;28.18;62.81
36798;BME280;22748;8.426;99.512;2023-01-30T10:20:37;100660.16;;;28.12;62.63
36798;BME280;22748;8.426;99.512;2023-01-30T10:23:32;100652.72;;;28.14;62.90
36798;BME280;22748;8.426;99.512;2023-01-30T10:26:15;100651.06;;;28.13;62.85
36798;BME280;22748;8.426;99.512;2023-01-30T10:28:56;100651.06;;;28.13;62.87
36798;BME280;22748;8.426;99.512;2023-01-30T10:31:33;100650.66;;;28.16;63.07
36798;BME280;22748;8.426;99.512;2023-01-30T10:34:12;100649.44;;;28.18;62.75
36798;BME280;22748;8.426;99.512;2023-01-30T10:36:49;100649.44;;;28.25;63.16
36798;BME280;22748;8.426;99.512;2023-01-30T10:39:30;100646.94;;;28.30;62.63
36798;BME280;22748;8.426;99.512;2023-01-30T10:42:09;100655.22;;;28.35;62.76
36798;BME280;22748;8.426;99.512;2023-01-30T10:44:42;100654.81;;;28.38;62.77
36798;BME280;22748;8.426;99.512;2023-01-30T10:47:28;100656.88;;;28.36;62.72
36798;BME280;22748;8.426;99.512;2023-01-30T10:50:13;100660.59;;;28.35;62.15
36798;BME280;22748;8.426;99.512;2023-01-30T10:52:49;100666.81;;;28.36;62.28
36798;BME280;22748;8.426;99.512;2023-01-30T10:55:29;100664.94;;;28.36;62.37
36798;BME280;22748;8.426;99.512;2023-01-30T10:58:10;100665.56;;;28.38;62.52
36798;BME280;22748;8.426;99.512;2023-01-30T11:00:45;100667.44;;;28.38;62.52
36798;BME280;22748;8.426;99.512;2023-01-30T11:03:29;100669.06;;;28.32;62.54
36798;BME280;22748;8.426;99.512;2023-01-30T11:06:04;100687.03;;;28.31;62.68
36798;BME280;22748;8.426;99.512;2023-01-30T11:08:35;100688.28;;;28.29;62.38
36798;BME280;22748;8.426;99.512;2023-01-30T11:11:24;100683.94;;;28.28;62.97
36798;BME280;22748;8.426;99.512;2023-01-30T11:14:05;100681.66;;;28.31;62.41
36798;BME280;22748;8.426;99.512;2023-01-30T11:16:44;100684.34;;;28.31;62.44
36798;BME280;22748;8.426;99.512;2023-01-30T11:19:18;100689.53;;;28.33;63.19
36798;BME280;22748;8.426;99.512;2023-01-30T11:21:50;100693.66;;;28.36;62.55
36798;BME280;22748;8.426;99.512;2023-01-30T11:24:27;100701.50;;;28.37;62.74
36798;BME280;22748;8.426;99.512;2023-01-30T11:27:10;100699.66;;;28.38;62.73
36798;BME280;22748;8.426;99.512;2023-01-30T11:29:42;100705.66;;;28.40;62.40
36798;BME280;22748;8.426;99.512;2023-01-30T11:32:23;100714.53;;;28.40;62.65
36798;BME280;22748;8.426;99.512;2023-01-30T11:35:06;100704.81;;;28.39;62.36
36798;BME280;22748;8.426;99.512;2023-01-30T11:37:46;100713.91;;;28.38;62.83
36798;BME280;22748;8.426;99.512;2023-01-30T11:40:26;100714.31;;;28.35;62.68
36798;BME280;22748;8.426;99.512;2023-01-30T11:43:04;100715.97;;;28.36;62.33
36798;BME280;22748;8.426;99.512;2023-01-30T11:45:39;100722.59;;;28.34;62.49
36798;BME280;22748;8.426;99.512;2023-01-30T11:48:17;100720.50;;;28.29;62.83
36798;BME280;22748;8.426;99.512;2023-01-30T11:50:49;100720.09;;;28.32;62.57
36798;BME280;22748;8.426;99.512;2023-01-30T11:53:29;100725.88;;;28.29;62.79
36798;BME280;22748;8.426;99.512;2023-01-30T11:56:07;100717.19;;;28.27;62.67
36798;BME280;22748;8.426;99.512;2023-01-30T11:58:40;100728.34;;;28.30;62.78
36798;BME280;22748;8.426;99.512;2023-01-30T12:01:17;100726.50;;;28.31;62.50
36798;BME280;22748;8.426;99.512;2023-01-30T12:03:50;100728.34;;;28.30;62.84
36798;BME280;22748;8.426;99.512;2023-01-30T12:06:28;100735.19;;;28.33;62.80
36798;BME280;22748;8.426;99.512;2023-01-30T12:08:59;100735.78;;;28.35;62.97
36798;BME280;22748;8.426;99.512;2023-01-30T12:11:39;100741.16;;;28.35;63.33
36798;BME280;22748;8.426;99.512;2023-01-30T12:14:19;100745.31;;;28.38;62.58
36798;BME280;22748;8.426;99.512;2023-01-30T12:17:03;100746.16;;;28.38;62.62
36798;BME280;22748;8.426;99.512;2023-01-30T12:19:55;100746.16;;;28.38;62.78
36798;BME280;22748;8.426;99.512;2023-01-30T12:22:37;100751.53;;;28.38;62.33
36798;BME280;22748;8.426;99.512;2023-01-30T12:25:15;100759.56;;;28.38;62.31
36798;BME280;22748;8.426;99.512;2023-01-30T12:27:55;100769.69;;;28.36;62.86
36798;BME280;22748;8.426;99.512;2023-01-30T12:30:37;100765.97;;;28.37;62.49
36798;BME280;22748;8.426;99.512;2023-01-30T12:33:14;100777.56;;;28.38;62.92
36798;BME280;22748;8.426;99.512;2023-01-30T12:35:56;100787.44;;;28.37;62.60
36798;BME280;22748;8.426;99.512;2023-01-30T12:38:45;100782.94;;;28.38;63.01
36798;BME280;22748;8.426;99.512;2023-01-30T12:41:40;100782.94;;;28.38;62.60
36798;BME280;22748;8.426;99.512;2023-01-30T12:44:33;100788.31;;;28.38;62.53
36798;BME280;22748;8.426;99.512;2023-01-30T12:47:20;100789.13;;;28.38;62.62
36798;BME280;22748;8.426;99.512;2023-01-30T12:50:05;100801.50;;;28.39;62.84
36798;BME280;22748;8.426;99.512;2023-01-30T12:53:03;100798.81;;;28.39;63.10
36798;BME280;22748;8.426;99.512;2023-01-30T12:55:47;100796.13;;;28.39;62.70
36798;BME280;22748;8.426;99.512;2023-01-30T12:58:22;100795.13;;;28.40;62.90
36798;BME280;22748;8.426;99.512;2023-01-30T13:01:10;100797.81;;;28.40;62.97
36798;BME280;22748;8.426;99.512;2023-01-30T13:03:44;100799.44;;;28.41;62.68
36798;BME280;22748;8.426;99.512;2023-01-30T13:06:48;100802.13;;;28.41;62.74
36798;BME280;22748;8.426;99.512;2023-01-30T13:09:43;100812.88;;;28.41;62.95
36798;BME280;22748;8.426;99.512;2023-01-30T13:12:22;100816.41;;;28.42;63.05
36798;BME280;22748;8.426;99.512;2023-01-30T13:15:01;100820.94;;;28.41;63.20
36798;BME280;22748;8.426;99.512;2023-01-30T13:17:44;100829.00;;;28.41;62.85
36798;BME280;22748;8.426;99.512;2023-01-30T13:20:28;100829.00;;;28.41;62.83
36798;BME280;22748;8.426;99.512;2023-01-30T13:23:11;100841.41;;;28.42;63.31
36798;BME280;22748;8.426;99.512;2023-01-30T13:25:51;100843.28;;;28.42;63.38
36798;BME280;22748;8.426;99.512;2023-01-30T13:28:28;100843.28;;;28.42;63.23
36798;BME280;22748;8.426;99.512;2023-01-30T13:31:07;100837.91;;;28.42;63.20
36798;BME280;22748;8.426;99.512;2023-01-30T13:33:41;100834.38;;;28.41;62.90